Time;durP1;ratioP1;P1;durP2;ratioP2;P2;SDS_P1;SDS_P2;PMS_P1;PMS_P2;Temp;Humidity;BMP_temperature;BMP_pressure;BME280_temperature;BME280_humidity;BME280_pressure;Samples;Min_cycle;Max_cycle;Signal;HPM_P1;HPM_P2
2021/04/16 00:02:13;;;;;;;5.32;2.95;;;7.60;99.90;;;;;;5107838;27;20517;-36
2021/04/16 00:04:52;;;;;;;2.42;1.90;;;7.60;99.90;;;;;;5128716;27;20565;-33
2021/04/16 00:07:31;;;;;;;3.63;2.20;;;7.60;99.90;;;;;;5108039;27;20597;-36
2021/04/16 00:10:16;;;;;;;2.15;1.60;;;7.50;99.90;;;;;;5128675;27;20544;-33
2021/04/16 00:12:54;;;;;;;2.30;1.90;;;7.50;99.90;;;;;;5128787;27;20561;-33
2021/04/16 00:15:35;;;;;;;2.10;1.92;;;7.50;99.90;;;;;;5108396;27;20562;-32
2021/04/16 00:18:17;;;;;;;2.30;2.15;;;7.50;99.90;;;;;;5169243;27;20519;-36
2021/04/16 00:20:56;;;;;;;3.35;3.03;;;7.40;99.90;;;;;;5107924;27;20933;-35
2021/04/16 00:23:35;;;;;;;2.53;2.22;;;7.40;99.90;;;;;;5087527;28;20592;-34
2021/04/16 00:26:15;;;;;;;3.95;2.75;;;7.30;99.90;;;;;;5131306;27;20572;-34
2021/04/16 00:28:42;;;;;;;3.97;2.13;;;7.40;99.90;;;;;;5116663;28;20236;-42
2021/04/16 00:31:13;;;;;;;4.53;2.00;;;7.40;99.90;;;;;;5123727;28;20283;-33
2021/04/16 00:33:53;;;;;;;2.88;2.15;;;7.50;99.90;;;;;;5108152;27;21080;-36
2021/04/16 00:36:22;;;;;;;4.88;2.15;;;7.40;99.90;;;;;;5108149;28;20220;-35
2021/04/16 00:39:01;;;;;;;2.03;1.77;;;7.40;99.90;;;;;;5093591;27;20526;-35
2021/04/16 00:41:30;;;;;;;2.33;2.13;;;7.40;99.90;;;;;;5087917;28;20281;-35
2021/04/16 00:44:08;;;;;;;2.15;1.95;;;7.40;99.90;;;;;;5108396;27;20509;-33
2021/04/16 00:46:50;;;;;;;2.40;2.20;;;7.50;99.90;;;;;;5048124;28;20517;-34
2021/04/16 00:49:33;;;;;;;2.10;1.88;;;7.50;99.90;;;;;;5108365;27;20520;-32
2021/04/16 00:52:03;;;;;;;5.15;1.55;;;7.50;99.90;;;;;;5107990;28;20196;-34
2021/04/16 00:54:43;;;;;;;2.60;1.42;;;7.40;99.90;;;;;;5129027;27;20913;-33
2021/04/16 00:57:12;;;;;;;1.80;1.67;;;7.40;99.90;;;;;;5128805;28;20555;-34
2021/04/16 00:59:54;;;;;;;2.22;2.03;;;7.50;99.90;;;;;;5108106;27;20506;-33
2021/04/16 01:02:32;;;;;;;2.15;1.85;;;7.50;99.90;;;;;;5128504;27;20528;-35
2021/04/16 01:04:59;;;;;;;3.05;1.58;;;7.50;99.90;;;;;;5128777;28;20185;-35
2021/04/16 01:07:26;;;;;;;2.50;2.30;;;7.50;99.90;;;;;;5128539;28;20195;-36
2021/04/16 01:09:53;;;;;;;1.58;1.38;;;7.60;99.90;;;;;;5128588;27;20193;-32
2021/04/16 01:12:34;;;;;;;2.25;1.95;;;7.60;99.90;;;;;;5087598;28;20567;-34
2021/04/16 01:15:24;;;;;;;2.13;1.70;;;7.50;99.90;;;;;;5108327;27;20509;-35
2021/04/16 01:18:09;;;;;;;2.83;1.77;;;7.40;99.90;;;;;;5107979;27;20949;-32
2021/04/16 01:20:51;;;;;;;1.27;1.17;;;7.40;99.90;;;;;;5149367;27;20575;-33
2021/04/16 01:23:43;;;;;;;1.33;1.27;;;7.50;99.90;;;;;;5108118;27;20562;-34
2021/04/16 01:26:26;;;;;;;4.60;1.67;;;7.50;99.90;;;;;;5108340;27;20509;-34
2021/04/16 01:29:06;;;;;;;2.28;1.58;;;7.50;99.90;;;;;;5149238;27;20534;-35
2021/04/16 01:31:47;;;;;;;1.42;1.33;;;7.40;99.90;;;;;;5067381;28;20573;-36
2021/04/16 01:34:28;;;;;;;1.70;1.52;;;7.30;99.90;;;;;;5088196;27;20849;-35
2021/04/16 01:37:07;;;;;;;1.42;1.10;;;7.40;99.90;;;;;;5129085;27;20736;-33
2021/04/16 01:39:46;;;;;;;2.20;1.60;;;7.30;99.90;;;;;;5108327;27;21215;-33
2021/04/16 01:42:24;;;;;;;4.72;1.83;;;7.30;99.90;;;;;;5128827;27;21169;-32
2021/04/16 01:45:05;;;;;;;1.50;1.40;;;7.30;99.90;;;;;;5128951;27;20568;-33
2021/04/16 01:47:43;;;;;;;2.15;1.38;;;7.30;99.90;;;;;;5149371;27;20582;-33
2021/04/16 01:50:22;;;;;;;1.80;1.70;;;7.20;99.90;;;;;;5087995;28;20517;-35
2021/04/16 01:53:01;;;;;;;2.20;1.45;;;7.30;99.90;;;;;;5149284;27;20518;-35
2021/04/16 01:55:41;;;;;;;1.73;1.63;;;7.20;99.90;;;;;;5108334;27;20513;-35
2021/04/16 01:58:19;;;;;;;3.17;1.67;;;7.20;99.90;;;;;;5108313;27;20524;-33
2021/04/16 02:00:58;;;;;;;1.85;1.70;;;7.30;99.90;;;;;;5149208;27;20566;-33
2021/04/16 02:03:36;;;;;;;1.50;1.40;;;7.30;99.90;;;;;;5128720;27;20565;-33
2021/04/16 02:06:16;;;;;;;2.60;1.67;;;7.20;99.90;;;;;;5108186;27;20513;-36
2021/04/16 02:08:55;;;;;;;1.80;1.70;;;7.20;99.90;;;;;;5128539;27;20576;-35
2021/04/16 02:11:35;;;;;;;2.08;1.48;;;7.20;99.90;;;;;;5108198;27;20570;-35
2021/04/16 02:14:14;;;;;;;1.98;1.75;;;7.20;99.90;;;;;;5128954;27;20576;-33
2021/04/16 02:16:56;;;;;;;2.10;1.60;;;7.20;99.90;;;;;;5088046;28;20577;-33
2021/04/16 02:19:35;;;;;;;1.45;1.35;;;7.10;99.90;;;;;;5107660;27;20821;-35
2021/04/16 02:22:03;;;;;;;1.83;1.65;;;7.10;99.90;;;;;;5108022;28;20190;-36
2021/04/16 02:24:42;;;;;;;1.42;1.33;;;7.10;99.90;;;;;;5008822;28;20527;-34
2021/04/16 02:27:24;;;;;;;2.72;1.67;;;7.10;99.90;;;;;;5108360;27;20565;-35
2021/04/16 02:30:06;;;;;;;2.00;1.85;;;7.20;99.90;;;;;;5108247;27;20562;-37
2021/04/16 02:32:44;;;;;;;4.28;1.88;;;7.10;99.90;;;;;;5088359;27;20522;-32
2021/04/16 02:35:23;;;;;;;1.63;1.52;;;7.10;99.90;;;;;;5088141;28;20520;-32
2021/04/16 02:38:03;;;;;;;2.88;2.25;;;7.10;99.90;;;;;;5122598;27;20575;-33
2021/04/16 02:40:30;;;;;;;1.80;1.63;;;7.30;99.90;;;;;;5108013;28;20201;-34
2021/04/16 02:43:09;;;;;;;2.20;1.80;;;7.40;99.90;;;;;;5128858;27;20511;-32
2021/04/16 02:45:47;;;;;;;2.95;2.17;;;7.30;99.90;;;;;;5128821;27;20511;-34
2021/04/16 02:48:26;;;;;;;2.42;2.22;;;7.30;99.90;;;;;;5108445;27;20531;-35
2021/04/16 02:51:04;;;;;;;3.17;2.10;;;7.20;99.90;;;;;;5107827;27;20507;-32
2021/04/16 02:53:44;;;;;;;6.13;2.80;;;7.20;99.90;;;;;;5108231;27;20516;-33
2021/04/16 02:56:45;;;;;;;2.40;2.15;;;7.10;99.90;;;;;;5107857;27;20574;-32
2021/04/16 02:59:24;;;;;;;3.03;2.38;;;7.10;99.90;;;;;;5107915;27;20536;-35
2021/04/16 03:02:03;;;;;;;5.93;2.42;;;7.00;99.90;;;;;;5129267;27;20515;-34
2021/04/16 03:04:42;;;;;;;3.40;2.05;;;6.90;99.90;;;;;;5087769;28;20521;-34
2021/04/16 03:07:20;;;;;;;4.20;2.65;;;6.90;99.90;;;;;;5150066;27;20518;-33
2021/04/16 03:10:00;;;;;;;2.30;2.10;;;7.00;99.90;;;;;;5108175;27;20528;-37
2021/04/16 03:12:38;;;;;;;3.40;2.70;;;7.10;99.90;;;;;;5107849;27;20573;-34
2021/04/16 03:15:17;;;;;;;4.15;2.55;;;7.00;99.90;;;;;;5129089;27;21021;-34
2021/04/16 03:17:57;;;;;;;3.47;3.15;;;6.90;99.90;;;;;;5107920;27;20516;-35
2021/04/16 03:20:36;;;;;;;2.72;2.53;;;6.70;99.90;;;;;;5128524;27;20576;-33
2021/04/16 03:23:14;;;;;;;3.95;2.15;;;6.80;99.90;;;;;;5108145;27;20574;-33
2021/04/16 03:25:52;;;;;;;4.13;2.40;;;6.80;99.90;;;;;;5108264;27;20512;-35
2021/04/16 03:28:31;;;;;;;3.22;2.85;;;6.70;99.90;;;;;;5108087;27;20533;-35
2021/04/16 03:31:09;;;;;;;3.15;2.53;;;6.60;99.90;;;;;;5108437;27;20578;-35
2021/04/16 03:33:49;;;;;;;3.05;2.78;;;6.50;99.90;;;;;;5170372;27;20580;-35
2021/04/16 03:36:29;;;;;;;3.47;2.72;;;6.60;99.90;;;;;;5128898;27;20543;-34
2021/04/16 03:38:57;;;;;;;2.67;2.47;;;6.40;99.90;;;;;;5114513;28;20213;-34
2021/04/16 03:41:35;;;;;;;3.05;2.75;;;6.30;99.90;;;;;;5108253;27;20513;-33
2021/04/16 03:44:03;;;;;;;3.13;2.65;;;6.20;99.90;;;;;;5108147;28;20197;-33
2021/04/16 03:46:29;;;;;;;2.55;2.33;;;6.20;99.90;;;;;;5108264;28;20204;-34
2021/04/16 03:49:08;;;;;;;2.85;2.55;;;6.20;99.90;;;;;;5108071;27;20528;-33
2021/04/16 03:51:54;;;;;;;3.50;2.67;;;6.20;99.90;;;;;;5149300;27;20563;-32
2021/04/16 03:54:33;;;;;;;5.72;3.78;;;6.30;99.90;;;;;;5088506;28;20567;-34
2021/04/16 03:57:13;;;;;;;5.30;3.40;;;6.30;99.90;;;;;;5108417;27;20890;-33
2021/04/16 03:59:54;;;;;;;4.60;3.42;;;6.30;99.90;;;;;;5106973;27;20394;-32
2021/04/16 04:02:32;;;;;;;3.08;2.72;;;6.60;99.90;;;;;;5108006;27;20562;-32
2021/04/16 04:04:59;;;;;;;7.93;2.92;;;6.50;99.90;;;;;;5108179;28;20189;-35
2021/04/16 04:07:25;;;;;;;3.28;2.95;;;6.40;99.90;;;;;;5108201;28;20284;-34
2021/04/16 04:10:06;;;;;;;2.88;2.55;;;6.30;99.90;;;;;;5109002;27;20558;-33
2021/04/16 04:12:46;;;;;;;2.63;2.35;;;6.30;99.90;;;;;;5149695;27;20514;-34
2021/04/16 04:15:24;;;;;;;5.93;3.85;;;6.20;99.90;;;;;;5108870;27;20513;-33
2021/04/16 04:18:05;;;;;;;3.20;2.90;;;6.10;99.90;;;;;;5107700;27;20525;-33
2021/04/16 04:20:44;;;;;;;3.50;2.80;;;6.10;99.90;;;;;;5108515;27;20509;-35
2021/04/16 04:23:22;;;;;;;3.55;3.10;;;6.10;99.90;;;;;;5108453;27;20562;-36
2021/04/16 04:26:00;;;;;;;5.30;3.92;;;6.00;99.90;;;;;;5108560;27;20516;-36
2021/04/16 04:28:38;;;;;;;4.63;3.13;;;6.00;99.90;;;;;;5087814;28;20530;-34
2021/04/16 04:31:17;;;;;;;3.63;3.15;;;6.10;99.90;;;;;;5128692;27;20560;-33
2021/04/16 04:33:55;;;;;;;4.30;3.15;;;6.20;99.90;;;;;;5108120;27;20516;-34
2021/04/16 04:36:33;;;;;;;6.15;2.67;;;6.00;99.90;;;;;;5108232;27;20513;-36
2021/04/16 04:39:12;;;;;;;3.92;3.63;;;6.00;99.90;;;;;;5112628;27;20536;-34
2021/04/16 04:41:51;;;;;;;5.50;3.38;;;6.00;99.90;;;;;;5128506;27;20873;-34
2021/04/16 04:44:30;;;;;;;4.57;3.50;;;6.10;99.90;;;;;;5064398;28;20580;-34
2021/04/16 04:46:57;;;;;;;3.15;2.72;;;6.10;99.90;;;;;;5096451;28;20681;-35
2021/04/16 04:49:37;;;;;;;3.30;3.10;;;6.00;99.90;;;;;;5067637;28;20931;-33
2021/04/16 04:52:17;;;;;;;4.28;2.72;;;6.10;99.90;;;;;;5088135;28;20869;-32
2021/04/16 04:54:58;;;;;;;3.08;2.75;;;6.00;99.90;;;;;;5108277;27;20532;-35
2021/04/16 04:57:37;;;;;;;3.65;2.83;;;5.90;99.90;;;;;;5128557;27;20519;-35
2021/04/16 05:00:19;;;;;;;4.78;2.92;;;5.90;99.90;;;;;;5128892;27;20873;-36
2021/04/16 05:02:59;;;;;;;5.40;3.30;;;5.90;99.90;;;;;;5108106;27;20509;-36
2021/04/16 05:05:37;;;;;;;3.53;3.00;;;6.10;99.90;;;;;;5128697;27;20591;-35
2021/04/16 05:08:15;;;;;;;3.78;3.17;;;6.10;99.90;;;;;;5128502;27;20527;-35
2021/04/16 05:10:53;;;;;;;3.63;3.30;;;5.90;99.90;;;;;;5108315;27;20521;-35
2021/04/16 05:13:32;;;;;;;4.35;3.58;;;6.00;99.90;;;;;;5108597;27;20505;-37
2021/04/16 05:16:12;;;;;;;4.30;3.10;;;6.10;99.90;;;;;;5108630;27;20521;-33
2021/04/16 05:18:53;;;;;;;3.95;3.03;;;6.10;99.90;;;;;;5128732;27;20531;-33
2021/04/16 05:21:36;;;;;;;4.40;3.40;;;6.10;99.90;;;;;;5150281;27;20506;-34
2021/04/16 05:24:15;;;;;;;3.65;2.88;;;6.10;99.90;;;;;;5108508;27;21047;-33
2021/04/16 05:26:55;;;;;;;4.25;3.33;;;6.00;99.90;;;;;;5150260;27;21048;-33
2021/04/16 05:29:34;;;;;;;4.18;3.35;;;6.00;99.90;;;;;;5129052;27;20946;-34
2021/04/16 05:32:13;;;;;;;3.88;3.58;;;6.00;99.90;;;;;;5067729;28;20520;-33
2021/04/16 05:34:51;;;;;;;3.97;3.35;;;6.00;99.90;;;;;;5108420;27;20573;-35
2021/04/16 05:37:31;;;;;;;5.32;3.95;;;6.10;99.90;;;;;;5085996;28;20928;-32
2021/04/16 05:39:58;;;;;;;5.35;3.47;;;6.20;99.90;;;;;;5067609;28;20207;-33
2021/04/16 05:42:37;;;;;;;5.25;4.15;;;6.30;99.90;;;;;;5108069;27;20562;-34
2021/04/16 05:45:05;;;;;;;3.65;3.30;;;6.30;99.90;;;;;;5108177;28;20261;-34
2021/04/16 05:47:32;;;;;;;5.20;3.42;;;6.20;99.90;;;;;;5108031;28;20188;-34
2021/04/16 05:49:59;;;;;;;3.58;2.83;;;6.50;99.90;;;;;;5108373;28;20200;-34
2021/04/16 05:52:27;;;;;;;4.07;3.65;;;6.50;99.90;;;;;;5107879;28;20355;-34
2021/04/16 05:55:07;;;;;;;2.95;2.65;;;6.60;99.90;;;;;;5128743;27;20938;-33
2021/04/16 05:57:45;;;;;;;3.58;3.28;;;6.50;99.90;;;;;;5149065;27;20579;-33
2021/04/16 06:00:24;;;;;;;5.35;3.08;;;6.70;99.90;;;;;;5149450;27;20578;-33
2021/04/16 06:03:03;;;;;;;3.90;3.40;;;6.70;99.90;;;;;;5108233;27;20505;-35
2021/04/16 06:05:43;;;;;;;4.47;3.20;;;6.80;99.90;;;;;;5128977;27;20561;-35
2021/04/16 06:08:10;;;;;;;3.13;2.83;;;6.80;99.90;;;;;;5128363;28;20539;-35
2021/04/16 06:10:50;;;;;;;4.60;3.30;;;6.80;99.90;;;;;;5149766;27;21016;-33
2021/04/16 06:13:29;;;;;;;4.78;4.20;;;6.90;99.90;;;;;;5129125;27;21114;-34
2021/04/16 06:16:09;;;;;;;4.13;3.70;;;6.80;99.90;;;;;;5109463;27;20562;-34
2021/04/16 06:18:50;;;;;;;4.53;3.55;;;7.00;99.90;;;;;;5135556;27;20531;-35
2021/04/16 06:21:17;;;;;;;5.25;3.05;;;6.90;99.90;;;;;;5120265;27;20201;-34
2021/04/16 06:23:55;;;;;;;4.18;3.42;;;6.90;99.90;;;;;;5087766;28;20518;-33
2021/04/16 06:26:33;;;;;;;5.05;3.03;;;6.80;99.90;;;;;;5128795;27;20885;-32
2021/04/16 06:29:11;;;;;;;5.20;4.05;;;6.80;99.90;;;;;;5092275;27;20946;-33
2021/04/16 06:31:49;;;;;;;6.57;3.90;;;6.70;99.90;;;;;;5149140;27;21052;-35
2021/04/16 06:34:16;;;;;;;4.30;3.90;;;6.80;99.90;;;;;;5149571;27;20279;-34
2021/04/16 06:36:43;;;;;;;5.25;3.72;;;6.70;99.90;;;;;;5149725;27;20200;-33
2021/04/16 06:39:10;;;;;;;6.38;3.33;;;6.80;99.90;;;;;;5132862;27;20208;-34
2021/04/16 06:41:39;;;;;;;8.02;3.97;;;6.90;99.90;;;;;;5128807;27;20279;-34
2021/04/16 06:44:14;;;;;;;7.35;3.50;;;7.00;99.90;;;;;;5131140;22;20363;-35
2021/04/16 06:46:43;;;;;;;4.25;3.45;;;7.10;99.90;;;;;;5066003;28;20206;-35
2021/04/16 06:49:14;;;;;;;4.03;3.30;;;7.20;99.90;;;;;;5091785;22;20640;-79
2021/04/16 06:51:50;;;;;;;4.13;3.72;;;7.40;99.90;;;;;;5070980;28;20222;-79
2021/04/16 06:54:22;;;;;;;6.07;4.10;;;7.30;99.90;;;;;;5057408;28;20203;-79
2021/04/16 06:56:52;;;;;;;4.00;2.92;;;7.30;99.90;;;;;;5070008;28;20202;-79
2021/04/16 06:59:23;;;;;;;4.90;4.05;;;7.20;99.90;;;;;;5071697;28;20201;-79
2021/04/16 07:01:54;;;;;;;4.63;4.13;;;7.20;99.90;;;;;;5054811;28;20274;-78
2021/04/16 07:04:33;;;;;;;10.20;3.80;;;7.40;99.90;;;;;;5086791;22;20230;-36
2021/04/16 07:07:04;;;;;;;4.88;3.85;;;7.50;99.90;;;;;;5087134;28;20688;-35
2021/04/16 07:09:35;;;;;;;3.95;3.30;;;7.50;99.90;;;;;;5086800;28;20608;-34
2021/04/16 07:12:06;;;;;;;4.65;3.70;;;7.40;99.90;;;;;;5087234;28;20565;-34
2021/04/16 07:14:38;;;;;;;5.75;3.28;;;7.50;99.90;;;;;;5087143;28;20622;-34
2021/04/16 07:17:07;;;;;;;4.20;3.40;;;7.50;99.90;;;;;;5087409;28;20199;-34
2021/04/16 07:19:35;;;;;;;6.80;3.50;;;7.60;99.90;;;;;;5099326;22;20660;-35
2021/04/16 07:22:07;;;;;;;4.40;3.58;;;7.50;99.90;;;;;;5085627;28;20201;-36
2021/04/16 07:24:35;;;;;;;4.35;3.95;;;7.50;99.90;;;;;;5086305;28;20194;-34
2021/04/16 07:27:15;;;;;;;5.47;4.07;;;7.50;99.90;;;;;;5085768;28;20556;-35
2021/04/16 07:29:45;;;;;;;5.10;4.15;;;7.40;99.90;;;;;;5085241;28;20221;-35
2021/04/16 07:32:17;;;;;;;6.97;4.07;;;7.50;99.90;;;;;;5085360;28;20206;-36
2021/04/16 07:34:47;;;;;;;5.70;4.68;;;7.70;99.90;;;;;;5085862;28;20227;-34
2021/04/16 07:37:19;;;;;;;4.05;3.75;;;7.90;99.90;;;;;;5085361;28;20212;-36
2021/04/16 07:39:58;;;;;;;5.88;3.65;;;7.90;99.90;;;;;;5085095;28;20244;-33
2021/04/16 07:42:37;;;;;;;6.70;4.07;;;7.90;99.90;;;;;;5075699;28;20297;-36
2021/04/16 07:45:16;;;;;;;6.65;4.55;;;8.20;99.90;;;;;;5071607;28;20197;-37
2021/04/16 07:47:43;;;;;;;7.88;3.88;;;8.40;99.90;;;;;;5071509;28;20202;-34
2021/04/16 07:50:14;;;;;;;7.53;3.60;;;8.60;99.90;;;;;;5071820;28;20361;-35
2021/04/16 07:52:43;;;;;;;5.00;3.72;;;8.70;99.90;;;;;;5071594;28;20285;-36
2021/04/16 07:55:23;;;;;;;5.13;3.50;;;8.80;99.90;;;;;;5071585;28;20194;-35
2021/04/16 07:58:03;;;;;;;3.28;2.92;;;8.70;99.90;;;;;;5071551;28;20279;-34
2021/04/16 08:00:33;;;;;;;7.30;3.92;;;8.90;99.90;;;;;;5071664;28;20195;-37
2021/04/16 08:03:11;;;;;;;3.97;3.63;;;8.90;99.90;;;;;;5071586;28;20665;-35
2021/04/16 08:05:43;;;;;;;4.88;3.50;;;9.00;99.90;;;;;;5071482;28;20244;-36
2021/04/16 08:08:14;;;;;;;4.90;3.60;;;8.90;99.90;;;;;;5071345;28;20290;-35
2021/04/16 08:10:43;;;;;;;6.10;3.90;;;9.00;99.90;;;;;;5071672;28;20214;-36
2021/04/16 08:13:13;;;;;;;4.18;3.60;;;9.10;99.90;;;;;;5071681;28;20190;-36
2021/04/16 08:15:41;;;;;;;2.97;2.72;;;9.20;99.90;;;;;;5071762;28;20191;-36
2021/04/16 08:18:20;;;;;;;4.25;3.45;;;9.20;99.90;;;;;;5071297;28;20245;-33
2021/04/16 08:21:01;;;;;;;6.82;2.88;;;9.10;99.90;;;;;;5071467;28;20224;-34
2021/04/16 08:23:34;;;;;;;6.13;3.00;;;9.40;99.90;;;;;;5071446;28;20210;-35
2021/04/16 08:26:03;;;;;;;3.25;2.55;;;9.60;99.90;;;;;;5071290;28;20216;-34
2021/04/16 08:28:45;;;;;;;4.57;2.60;;;9.90;99.90;;;;;;5070808;28;20219;-36
2021/04/16 08:31:17;;;;;;;3.80;2.08;;;10.10;99.90;;;;;;5070932;28;20305;-34
2021/04/16 08:34:21;;;;;;;2.10;1.90;;;10.30;99.90;;;;;;5071010;28;20202;-35
2021/04/16 08:36:49;;;;;;;2.90;1.95;;;10.30;99.90;;;;;;5071354;28;20218;-34
2021/04/16 08:39:20;;;;;;;2.10;1.90;;;10.40;99.90;;;;;;5071286;28;20248;-35
2021/04/16 08:41:51;;;;;;;1.95;1.75;;;10.40;99.90;;;;;;5070789;28;20217;-36
2021/04/16 08:44:18;;;;;;;2.90;1.70;;;10.60;99.90;;;;;;5071287;28;20194;-34
2021/04/16 08:46:47;;;;;;;2.00;1.77;;;10.80;99.90;;;;;;5071136;28;20750;-36
2021/04/16 08:49:22;;;;;;;2.47;1.70;;;11.00;99.90;;;;;;5070614;28;20240;-35
2021/04/16 08:51:54;;;;;;;2.45;2.00;;;11.20;99.90;;;;;;5070266;28;20217;-34
2021/04/16 08:54:26;;;;;;;2.00;1.60;;;11.30;99.90;;;;;;5069760;28;20237;-34
2021/04/16 08:56:58;;;;;;;1.63;1.50;;;11.40;99.90;;;;;;5071044;28;20202;-36
2021/04/16 08:59:31;;;;;;;4.25;1.73;;;11.30;99.90;;;;;;5071323;28;20248;-35
2021/04/16 09:02:06;;;;;;;2.58;1.88;;;11.20;99.90;;;;;;5070577;28;20281;-34
2021/04/16 09:04:48;;;;;;;2.83;1.63;;;11.20;99.90;;;;;;5071128;28;20280;-37
2021/04/16 09:07:33;;;;;;;5.28;1.90;;;11.30;99.90;;;;;;5070901;28;20221;-35
2021/04/16 09:10:02;;;;;;;2.22;1.83;;;11.30;99.90;;;;;;5070888;28;20218;-36
2021/04/16 09:12:51;;;;;;;4.30;1.85;;;11.60;99.90;;;;;;5070618;28;20249;-36
2021/04/16 09:15:39;;;;;;;3.53;1.70;;;11.50;99.90;;;;;;5070838;28;20271;-35
2021/04/16 09:18:30;;;;;;;4.47;1.70;;;11.70;99.90;;;;;;5070324;28;20275;-35
2021/04/16 09:21:18;;;;;;;3.15;1.92;;;11.80;99.90;;;;;;5070462;28;20213;-34
2021/04/16 09:23:57;;;;;;;32.67;23.02;;;11.90;99.90;;;;;;5070638;28;20206;-33
2021/04/16 09:26:57;;;;;;;8.50;6.03;;;12.10;99.90;;;;;;5070341;28;20682;-36
2021/04/16 09:29:41;;;;;;;3.13;1.80;;;12.10;99.90;;;;;;5067146;28;20817;-33
2021/04/16 09:32:49;;;;;;;3.47;1.77;;;12.20;99.90;;;;;;5067317;28;20602;-37
2021/04/16 09:35:45;;;;;;;2.10;1.38;;;12.30;99.90;;;;;;5070491;28;20254;-34
2021/04/16 09:38:31;;;;;;;1.77;1.65;;;12.10;99.90;;;;;;5066491;28;20238;-36
2021/04/16 09:41:31;;;;;;;1.55;1.45;;;12.00;99.90;;;;;;5049950;28;20210;-33
2021/04/16 09:44:00;;;;;;;1.92;1.83;;;12.00;99.90;;;;;;5065626;28;20228;-35
2021/04/16 09:46:48;;;;;;;3.70;1.98;;;11.80;99.90;;;;;;5069708;28;20746;-35
2021/04/16 09:49:35;;;;;;;4.22;2.08;;;11.90;99.90;;;;;;5069255;28;20227;-34
2021/04/16 09:52:35;;;;;;;7.43;2.58;;;11.90;99.90;;;;;;5069123;28;20282;-35
2021/04/16 09:55:26;;;;;;;2.22;1.52;;;12.10;99.90;;;;;;5069596;28;20202;-34
2021/04/16 09:57:54;;;;;;;1.40;1.10;;;12.30;99.90;;;;;;5068661;28;20298;-36
2021/04/16 10:01:06;;;;;;;2.30;2.13;;;12.30;99.90;;;;;;5069314;28;20190;-34
2021/04/16 10:03:50;;;;;;;1.80;1.70;;;12.50;99.90;;;;;;5069182;28;20206;-34
2021/04/16 10:06:22;;;;;;;3.00;1.95;;;12.80;99.90;;;;;;5069370;28;20207;-36
2021/04/16 10:09:05;;;;;;;1.60;1.50;;;13.00;99.90;;;;;;5069209;28;20701;-33
2021/04/16 10:11:32;;;;;;;1.52;1.42;;;12.90;99.90;;;;;;5069425;28;20283;-34
2021/04/16 10:14:15;;;;;;;2.40;1.92;;;13.00;99.90;;;;;;5069091;28;20270;-35
2021/04/16 10:16:43;;;;;;;2.25;1.70;;;13.10;99.90;;;;;;5069524;28;20706;-34
2021/04/16 10:19:12;;;;;;;2.42;1.77;;;13.30;99.90;;;;;;5068563;28;20317;-34
2021/04/16 10:21:39;;;;;;;6.28;3.75;;;13.50;99.90;;;;;;5068895;28;20270;-34
2021/04/16 10:25:05;;;;;;;4.35;3.47;;;13.80;99.90;;;;;;5068838;28;20228;-34
2021/04/16 12:38:26;;;;;;;2.30;1.95;;;18.20;99.90;;;;;;5109814;22;20736;-36
2021/04/16 12:40:56;;;;;;;2.10;1.90;;;18.10;99.90;;;;;;5065946;28;20191;-35
2021/04/16 12:43:37;;;;;;;3.08;1.80;;;17.60;99.90;;;;;;5124515;27;20581;-36
2021/04/16 12:46:06;;;;;;;1.90;1.80;;;17.80;99.90;;;;;;5128676;27;20177;-36
2021/04/16 12:48:33;;;;;;;2.95;1.98;;;17.50;99.90;;;;;;5127702;27;20212;-37
2021/04/16 12:51:15;;;;;;;2.03;1.55;;;17.00;99.90;;;;;;5150962;27;20595;-36
2021/04/16 12:53:53;;;;;;;5.15;3.60;;;16.80;99.90;;;;;;5126171;27;20580;-36
2021/04/16 12:56:35;;;;;;;11.55;9.70;;;16.70;99.90;;;;;;5128150;27;20877;-36
2021/04/16 12:59:17;;;;;;;2.60;2.40;;;16.50;99.90;;;;;;5087686;28;21044;-34
2021/04/16 13:01:56;;;;;;;2.10;1.50;;;16.70;99.90;;;;;;5107935;27;20517;-35
2021/04/16 13:04:41;;;;;;;3.20;2.00;;;16.70;99.30;;;;;;5107903;27;20929;-36
2021/04/16 13:07:09;;;;;;;2.05;1.75;;;16.30;99.40;;;;;;5087857;28;20194;-33
2021/04/16 13:09:36;;;;;;;3.22;2.05;;;15.90;99.80;;;;;;5093072;28;20284;-36
2021/04/16 13:12:15;;;;;;;2.00;1.52;;;15.80;99.90;;;;;;5128247;27;20523;-33
2021/04/16 13:14:54;;;;;;;2.53;1.73;;;15.80;99.90;;;;;;5088189;28;21122;-34
2021/04/16 13:17:24;;;;;;;1.70;1.60;;;16.30;99.90;;;;;;5084601;28;20225;-34
2021/04/16 13:20:04;;;;;;;2.22;1.85;;;16.70;99.90;;;;;;5108252;27;20504;-36
2021/04/16 13:22:43;;;;;;;3.20;2.58;;;16.90;99.90;;;;;;5108268;27;20922;-37
2021/04/16 13:25:23;;;;;;;2.10;1.77;;;16.90;99.90;;;;;;5108501;27;20919;-35
2021/04/16 13:28:01;;;;;;;2.17;1.95;;;16.90;99.90;;;;;;5067270;28;20596;-34
2021/04/16 13:30:39;;;;;;;2.40;1.80;;;16.80;99.90;;;;;;5108590;27;20525;-34
2021/04/16 13:33:11;;;;;;;2.15;1.83;;;17.20;99.90;;;;;;5108293;28;20231;-36
2021/04/16 13:35:55;;;;;;;1.80;1.70;;;17.40;99.90;;;;;;5108514;27;21112;-36
2021/04/16 13:38:34;;;;;;;2.88;2.00;;;17.70;99.90;;;;;;5108115;27;21047;-35
2021/04/16 13:41:12;;;;;;;4.82;2.17;;;17.80;99.90;;;;;;5128640;27;20516;-37
2021/04/16 13:43:53;;;;;;;1.63;1.52;;;17.80;99.70;;;;;;5107693;27;20930;-36
2021/04/16 13:46:34;;;;;;;5.30;3.10;;;17.70;99.90;;;;;;5108056;27;20524;-35
2021/04/16 13:49:20;;;;;;;2.92;2.63;;;17.80;99.90;;;;;;5107728;27;21047;-36
2021/04/16 13:51:47;;;;;;;4.18;2.03;;;18.10;99.80;;;;;;5107548;28;20254;-34
2021/04/16 13:54:26;;;;;;;2.40;2.20;;;17.70;99.10;;;;;;5087413;28;20530;-34
2021/04/16 13:57:07;;;;;;;24.83;19.38;;;17.40;99.00;;;;;;5108484;27;20505;-35
2021/04/16 13:59:48;;;;;;;2.72;1.70;;;17.20;99.20;;;;;;5128482;27;20512;-36
2021/04/16 14:02:18;;;;;;;3.45;2.40;;;17.30;99.20;;;;;;5110155;28;20215;-36
2021/04/16 14:04:57;;;;;;;2.20;2.00;;;17.50;98.90;;;;;;5131846;27;21106;-35
2021/04/16 14:07:35;;;;;;;3.03;2.10;;;17.90;98.50;;;;;;5144883;27;21079;-36
2021/04/16 14:10:01;;;;;;;2.10;2.00;;;18.10;99.30;;;;;;5115037;28;20229;-35
2021/04/16 14:12:28;;;;;;;1.92;1.83;;;18.60;99.00;;;;;;5123473;27;20192;-35
2021/04/16 14:14:56;;;;;;;3.20;1.80;;;19.40;98.80;;;;;;5128639;27;20192;-35
2021/04/16 14:17:26;;;;;;;4.13;1.95;;;20.40;98.40;;;;;;5129143;28;20587;-35
2021/04/16 14:20:02;;;;;;;3.35;1.98;;;20.30;97.70;;;;;;5127671;27;20245;-52
2021/04/16 14:22:34;;;;;;;1.98;1.70;;;20.50;96.90;;;;;;5024401;28;20298;-33
2021/04/16 14:25:02;;;;;;;2.65;1.55;;;21.00;97.00;;;;;;5026555;28;20208;-36
2021/04/16 14:27:28;;;;;;;1.75;1.35;;;21.70;96.40;;;;;;5026096;28;20220;-36
2021/04/16 14:29:55;;;;;;;2.45;1.95;;;22.10;96.10;;;;;;5026311;28;20707;-34
2021/04/16 14:32:24;;;;;;;3.05;2.00;;;22.50;94.40;;;;;;5022871;28;20220;-36
2021/04/16 14:34:52;;;;;;;2.50;2.00;;;23.00;93.40;;;;;;5026401;28;20621;-34
2021/04/16 14:37:19;;;;;;;1.83;1.70;;;23.20;94.00;;;;;;5026453;28;20196;-34
2021/04/16 14:39:47;;;;;;;2.17;1.70;;;23.00;92.90;;;;;;5026398;28;20235;-33
2021/04/16 14:42:16;;;;;;;2.35;2.15;;;23.40;92.30;;;;;;5026382;28;20216;-34
2021/04/16 14:44:43;;;;;;;3.15;1.17;;;22.90;91.80;;;;;;5025053;28;20205;-34
2021/04/16 14:47:09;;;;;;;3.15;1.40;;;21.90;92.50;;;;;;5026021;28;20775;-35
2021/04/16 14:49:36;;;;;;;1.48;1.13;;;21.00;92.40;;;;;;5024578;28;20196;-35
2021/04/16 14:52:06;;;;;;;1.92;1.70;;;20.70;92.60;;;;;;5023420;28;20216;-35
2021/04/16 14:54:35;;;;;;;1.40;1.23;;;19.90;92.90;;;;;;5018151;28;20208;-36
2021/04/16 14:57:07;;;;;;;1.58;1.48;;;18.90;93.20;;;;;;5025101;28;20196;-34
2021/04/16 14:59:37;;;;;;;1.25;1.13;;;18.60;93.00;;;;;;5025207;28;20253;-36
2021/04/16 15:02:04;;;;;;;2.58;1.00;;;19.20;93.30;;;;;;5025073;28;20212;-36
2021/04/16 15:04:31;;;;;;;2.55;1.30;;;20.10;93.40;;;;;;5016909;28;20197;-33
2021/04/16 15:07:00;;;;;;;2.25;1.10;;;21.00;92.70;;;;;;5020491;28;20715;-35
2021/04/16 15:09:35;;;;;;;3.13;1.90;;;21.90;91.80;;;;;;5020872;28;20204;-34
2021/04/16 15:12:04;;;;;;;5.07;1.35;;;22.10;91.20;;;;;;5025272;28;20219;-34
2021/04/16 15:14:31;;;;;;;1.77;1.10;;;21.80;90.90;;;;;;5025128;28;20280;-35
2021/04/16 15:16:59;;;;;;;3.58;2.28;;;21.30;91.60;;;;;;5022960;28;20200;-35
2021/04/16 15:19:32;;;;;;;4.10;1.38;;;20.40;91.60;;;;;;5011932;28;20279;-34
2021/04/16 15:22:00;;;;;;;0.90;0.90;;;19.40;92.50;;;;;;5011751;28;20248;-35
2021/04/16 15:24:28;;;;;;;2.85;1.60;;;18.50;92.00;;;;;;5012255;28;20549;-35
2021/04/16 15:26:55;;;;;;;2.90;1.02;;;17.90;92.70;;;;;;5011600;28;20463;-35
2021/04/16 15:29:29;;;;;;;1.27;0.95;;;17.90;93.20;;;;;;5004610;28;20240;-35
2021/04/16 15:31:56;;;;;;;4.10;2.38;;;17.60;93.00;;;;;;4992200;28;20221;-35
2021/04/16 15:48:05;;;;;;;2.75;1.40;;;16.70;93.10;;;;;;5010866;28;20581;-34
2021/04/16 15:50:35;;;;;;;10.35;8.90;;;16.60;93.90;;;;;;5008992;28;20806;-34
2021/04/16 15:53:03;;;;;;;6.93;5.60;;;16.30;93.90;;;;;;5011225;28;20691;-34
2021/04/16 15:55:29;;;;;;;6.32;4.40;;;15.90;94.50;;;;;;5011473;28;20208;-36
2021/04/16 15:57:57;;;;;;;2.65;1.30;;;15.50;93.50;;;;;;5010383;28;20235;-35
2021/04/16 16:00:30;;;;;;;1.90;0.93;;;15.40;94.60;;;;;;5010770;28;20224;-39
2021/04/16 16:02:57;;;;;;;1.13;1.10;;;15.10;94.80;;;;;;5009197;28;20265;-35
2021/04/16 16:05:24;;;;;;;1.55;1.10;;;15.00;94.60;;;;;;5011279;28;20688;-35